Terminal Aerodrome Forecast
Issued by NWS La Crosse, WI

Home | Current Version | Previous Version | Text Only | Print | Product List | Glossary On
Versions: 1 2 3 4 5 6 7 8 9 10 11 12 13 14 15 16 17 18
000
FTUS43 KARX 030520
TAFRST
TAF
KRST 030520Z 0306/0406 22006KT P6SM FEW090
     FM031300 25010KT P6SM SKC
     FM031800 27016G26KT P6SM SCT050
     FM040100 31012KT 6SM -SHRA BKN050
     FM040500 34010KT P6SM SCT080=

USA.gov is the U.S. government's official web portal to all federal, state and local government web resources and services.